sensor_id;sensor_type;location;lat;lon;timestamp;P1;durP1;ratioP1;P2;durP2;ratioP2
7487;SDS011;3785;52.260;4.728;2023-03-03T00:02:05;7.25;;;3.78;;
7487;SDS011;3785;52.260;4.728;2023-03-03T00:05:26;7.18;;;3.05;;
7487;SDS011;3785;52.260;4.728;2023-03-03T00:08:47;7.95;;;3.50;;
7487;SDS011;3785;52.260;4.728;2023-03-03T00:12:17;6.57;;;3.20;;
7487;SDS011;3785;52.260;4.728;2023-03-03T00:15:40;5.53;;;2.65;;
7487;SDS011;3785;52.260;4.728;2023-03-03T00:19:00;5.40;;;2.88;;
7487;SDS011;3785;52.260;4.728;2023-03-03T00:22:26;7.47;;;3.20;;
7487;SDS011;3785;52.260;4.728;2023-03-03T00:25:49;7.05;;;2.95;;
7487;SDS011;3785;52.260;4.728;2023-03-03T00:32:49;5.70;;;2.78;;
7487;SDS011;3785;52.260;4.728;2023-03-03T00:43:40;6.17;;;2.07;;
7487;SDS011;3785;52.260;4.728;2023-03-03T00:47:10;3.67;;;2.50;;
7487;SDS011;3785;52.260;4.728;2023-03-03T00:50:38;3.50;;;2.30;;
7487;SDS011;3785;52.260;4.728;2023-03-03T00:54:00;4.23;;;1.77;;
7487;SDS011;3785;52.260;4.728;2023-03-03T00:57:21;2.43;;;1.67;;
7487;SDS011;3785;52.260;4.728;2023-03-03T01:00:41;4.03;;;2.10;;
7487;SDS011;3785;52.260;4.728;2023-03-03T01:04:02;4.57;;;2.47;;
7487;SDS011;3785;52.260;4.728;2023-03-03T01:07:23;3.58;;;1.77;;
7487;SDS011;3785;52.260;4.728;2023-03-03T01:10:45;4.90;;;1.97;;
7487;SDS011;3785;52.260;4.728;2023-03-03T01:14:27;3.57;;;2.07;;
7487;SDS011;3785;52.260;4.728;2023-03-03T01:17:47;3.42;;;1.88;;
7487;SDS011;3785;52.260;4.728;2023-03-03T01:21:09;2.87;;;1.90;;
7487;SDS011;3785;52.260;4.728;2023-03-03T01:24:30;3.53;;;2.00;;
7487;SDS011;3785;52.260;4.728;2023-03-03T01:27:51;3.33;;;1.52;;
7487;SDS011;3785;52.260;4.728;2023-03-03T01:31:11;4.78;;;1.98;;
7487;SDS011;3785;52.260;4.728;2023-03-03T01:34:32;3.97;;;2.00;;
7487;SDS011;3785;52.260;4.728;2023-03-03T01:37:53;3.53;;;1.65;;
7487;SDS011;3785;52.260;4.728;2023-03-03T01:41:13;3.63;;;1.95;;
7487;SDS011;3785;52.260;4.728;2023-03-03T01:44:34;3.53;;;1.77;;
7487;SDS011;3785;52.260;4.728;2023-03-03T01:51:21;3.95;;;2.00;;
7487;SDS011;3785;52.260;4.728;2023-03-03T01:54:46;2.27;;;1.30;;
7487;SDS011;3785;52.260;4.728;2023-03-03T01:58:10;3.65;;;1.63;;
7487;SDS011;3785;52.260;4.728;2023-03-03T02:01:39;3.15;;;1.75;;
7487;SDS011;3785;52.260;4.728;2023-03-03T02:05:00;3.30;;;1.85;;
7487;SDS011;3785;52.260;4.728;2023-03-03T02:08:22;1.90;;;1.33;;
7487;SDS011;3785;52.260;4.728;2023-03-03T02:11:46;3.78;;;1.48;;
7487;SDS011;3785;52.260;4.728;2023-03-03T02:15:18;3.83;;;1.97;;
7487;SDS011;3785;52.260;4.728;2023-03-03T02:18:56;3.13;;;1.83;;
7487;SDS011;3785;52.260;4.728;2023-03-03T02:22:17;2.28;;;1.38;;
7487;SDS011;3785;52.260;4.728;2023-03-03T02:25:43;2.67;;;1.73;;
7487;SDS011;3785;52.260;4.728;2023-03-03T02:29:15;5.47;;;1.70;;
7487;SDS011;3785;52.260;4.728;2023-03-03T02:32:35;4.17;;;1.90;;
7487;SDS011;3785;52.260;4.728;2023-03-03T02:35:56;3.10;;;1.50;;
7487;SDS011;3785;52.260;4.728;2023-03-03T02:39:18;6.13;;;1.90;;
7487;SDS011;3785;52.260;4.728;2023-03-03T02:42:40;6.87;;;1.97;;
7487;SDS011;3785;52.260;4.728;2023-03-03T02:46:01;4.93;;;1.70;;
7487;SDS011;3785;52.260;4.728;2023-03-03T02:49:23;2.23;;;1.50;;
7487;SDS011;3785;52.260;4.728;2023-03-03T02:52:45;2.93;;;1.50;;
7487;SDS011;3785;52.260;4.728;2023-03-03T02:56:06;3.17;;;1.90;;
7487;SDS011;3785;52.260;4.728;2023-03-03T02:59:28;3.33;;;1.83;;
7487;SDS011;3785;52.260;4.728;2023-03-03T03:02:48;5.83;;;1.97;;
7487;SDS011;3785;52.260;4.728;2023-03-03T03:06:09;3.03;;;1.90;;
7487;SDS011;3785;52.260;4.728;2023-03-03T03:09:30;7.13;;;2.10;;
7487;SDS011;3785;52.260;4.728;2023-03-03T03:12:51;5.70;;;2.40;;
7487;SDS011;3785;52.260;4.728;2023-03-03T03:16:11;5.97;;;2.57;;
7487;SDS011;3785;52.260;4.728;2023-03-03T03:19:32;4.40;;;2.73;;
7487;SDS011;3785;52.260;4.728;2023-03-03T03:22:52;4.73;;;2.73;;
7487;SDS011;3785;52.260;4.728;2023-03-03T03:26:13;5.03;;;3.10;;
7487;SDS011;3785;52.260;4.728;2023-03-03T03:29:34;6.60;;;3.27;;
7487;SDS011;3785;52.260;4.728;2023-03-03T03:32:54;7.23;;;3.30;;
7487;SDS011;3785;52.260;4.728;2023-03-03T03:36:15;7.10;;;3.93;;
7487;SDS011;3785;52.260;4.728;2023-03-03T03:39:36;7.60;;;4.40;;
7487;SDS011;3785;52.260;4.728;2023-03-03T03:42:56;8.13;;;3.90;;
7487;SDS011;3785;52.260;4.728;2023-03-03T03:46:17;8.10;;;4.27;;
7487;SDS011;3785;52.260;4.728;2023-03-03T03:49:37;7.47;;;4.20;;
7487;SDS011;3785;52.260;4.728;2023-03-03T03:52:58;7.13;;;4.03;;
7487;SDS011;3785;52.260;4.728;2023-03-03T03:56:18;8.27;;;4.53;;
7487;SDS011;3785;52.260;4.728;2023-03-03T03:59:39;7.97;;;4.03;;
7487;SDS011;3785;52.260;4.728;2023-03-03T04:03:00;6.90;;;3.83;;
7487;SDS011;3785;52.260;4.728;2023-03-03T04:06:20;6.67;;;3.60;;
7487;SDS011;3785;52.260;4.728;2023-03-03T04:09:41;6.80;;;3.63;;
7487;SDS011;3785;52.260;4.728;2023-03-03T04:13:01;6.53;;;3.57;;
7487;SDS011;3785;52.260;4.728;2023-03-03T04:16:22;7.20;;;4.20;;
7487;SDS011;3785;52.260;4.728;2023-03-03T04:19:43;8.23;;;3.67;;
7487;SDS011;3785;52.260;4.728;2023-03-03T04:23:04;6.93;;;3.57;;
7487;SDS011;3785;52.260;4.728;2023-03-03T04:26:24;7.30;;;3.77;;
7487;SDS011;3785;52.260;4.728;2023-03-03T04:29:45;9.90;;;5.35;;
7487;SDS011;3785;52.260;4.728;2023-03-03T04:33:06;10.17;;;5.80;;
7487;SDS011;3785;52.260;4.728;2023-03-03T04:36:27;9.85;;;5.57;;
7487;SDS011;3785;52.260;4.728;2023-03-03T04:39:48;9.43;;;4.18;;
7487;SDS011;3785;52.260;4.728;2023-03-03T04:43:08;7.18;;;4.15;;
7487;SDS011;3785;52.260;4.728;2023-03-03T04:46:29;8.23;;;5.20;;
7487;SDS011;3785;52.260;4.728;2023-03-03T04:49:49;10.77;;;5.10;;
7487;SDS011;3785;52.260;4.728;2023-03-03T04:53:10;10.52;;;4.47;;
7487;SDS011;3785;52.260;4.728;2023-03-03T04:56:31;7.47;;;4.30;;
7487;SDS011;3785;52.260;4.728;2023-03-03T04:59:51;6.90;;;3.63;;
7487;SDS011;3785;52.260;4.728;2023-03-03T05:03:12;6.97;;;3.85;;
7487;SDS011;3785;52.260;4.728;2023-03-03T05:06:33;7.45;;;4.10;;
7487;SDS011;3785;52.260;4.728;2023-03-03T05:09:53;7.07;;;4.00;;
7487;SDS011;3785;52.260;4.728;2023-03-03T05:13:14;12.70;;;4.32;;
7487;SDS011;3785;52.260;4.728;2023-03-03T05:16:36;7.60;;;4.43;;
7487;SDS011;3785;52.260;4.728;2023-03-03T05:19:56;8.75;;;4.10;;
7487;SDS011;3785;52.260;4.728;2023-03-03T05:23:17;9.48;;;4.75;;
7487;SDS011;3785;52.260;4.728;2023-03-03T05:26:39;8.25;;;4.68;;
7487;SDS011;3785;52.260;4.728;2023-03-03T05:30:00;8.38;;;4.00;;
7487;SDS011;3785;52.260;4.728;2023-03-03T05:33:20;6.97;;;4.17;;
7487;SDS011;3785;52.260;4.728;2023-03-03T05:36:41;8.95;;;4.43;;
7487;SDS011;3785;52.260;4.728;2023-03-03T05:40:01;7.73;;;4.43;;
7487;SDS011;3785;52.260;4.728;2023-03-03T05:43:23;9.23;;;4.47;;
7487;SDS011;3785;52.260;4.728;2023-03-03T05:46:43;6.97;;;3.92;;
7487;SDS011;3785;52.260;4.728;2023-03-03T05:50:04;9.55;;;4.57;;
7487;SDS011;3785;52.260;4.728;2023-03-03T05:53:25;8.85;;;4.85;;
7487;SDS011;3785;52.260;4.728;2023-03-03T05:56:46;10.45;;;5.55;;
7487;SDS011;3785;52.260;4.728;2023-03-03T06:00:07;8.27;;;4.80;;
7487;SDS011;3785;52.260;4.728;2023-03-03T06:03:28;8.40;;;4.28;;
7487;SDS011;3785;52.260;4.728;2023-03-03T06:06:49;8.88;;;5.00;;
7487;SDS011;3785;52.260;4.728;2023-03-03T06:10:10;8.90;;;5.05;;
7487;SDS011;3785;52.260;4.728;2023-03-03T06:13:30;11.98;;;5.35;;
7487;SDS011;3785;52.260;4.728;2023-03-03T06:16:51;6.28;;;3.90;;
7487;SDS011;3785;52.260;4.728;2023-03-03T06:20:11;11.35;;;4.43;;
7487;SDS011;3785;52.260;4.728;2023-03-03T06:23:32;7.53;;;3.60;;
7487;SDS011;3785;52.260;4.728;2023-03-03T06:26:53;6.35;;;4.13;;
7487;SDS011;3785;52.260;4.728;2023-03-03T06:30:13;6.15;;;3.55;;
7487;SDS011;3785;52.260;4.728;2023-03-03T06:33:34;6.80;;;4.10;;
7487;SDS011;3785;52.260;4.728;2023-03-03T06:36:55;7.28;;;4.63;;
7487;SDS011;3785;52.260;4.728;2023-03-03T06:40:16;7.45;;;4.05;;
7487;SDS011;3785;52.260;4.728;2023-03-03T06:43:36;7.95;;;3.95;;
7487;SDS011;3785;52.260;4.728;2023-03-03T06:46:57;10.38;;;4.07;;
7487;SDS011;3785;52.260;4.728;2023-03-03T06:50:18;11.95;;;5.20;;
7487;SDS011;3785;52.260;4.728;2023-03-03T06:53:39;16.27;;;6.47;;
7487;SDS011;3785;52.260;4.728;2023-03-03T06:57:01;12.45;;;7.03;;
7487;SDS011;3785;52.260;4.728;2023-03-03T07:00:27;17.23;;;7.63;;
7487;SDS011;3785;52.260;4.728;2023-03-03T07:03:48;11.30;;;5.55;;
7487;SDS011;3785;52.260;4.728;2023-03-03T07:07:17;8.13;;;4.60;;
7487;SDS011;3785;52.260;4.728;2023-03-03T07:10:39;8.18;;;4.47;;
7487;SDS011;3785;52.260;4.728;2023-03-03T07:14:00;10.38;;;5.68;;
7487;SDS011;3785;52.260;4.728;2023-03-03T07:17:22;9.63;;;5.00;;
7487;SDS011;3785;52.260;4.728;2023-03-03T07:20:44;11.73;;;6.18;;
7487;SDS011;3785;52.260;4.728;2023-03-03T07:24:13;12.48;;;6.97;;
7487;SDS011;3785;52.260;4.728;2023-03-03T07:27:44;14.52;;;6.90;;
7487;SDS011;3785;52.260;4.728;2023-03-03T07:31:14;17.00;;;7.65;;
7487;SDS011;3785;52.260;4.728;2023-03-03T07:34:48;21.75;;;9.10;;
7487;SDS011;3785;52.260;4.728;2023-03-03T07:42:10;19.08;;;8.65;;
7487;SDS011;3785;52.260;4.728;2023-03-03T07:45:42;16.17;;;7.57;;
7487;SDS011;3785;52.260;4.728;2023-03-03T07:49:07;14.63;;;8.02;;
7487;SDS011;3785;52.260;4.728;2023-03-03T07:52:47;16.80;;;8.15;;
7487;SDS011;3785;52.260;4.728;2023-03-03T07:59:50;16.92;;;7.20;;
7487;SDS011;3785;52.260;4.728;2023-03-03T08:03:15;13.40;;;8.13;;
7487;SDS011;3785;52.260;4.728;2023-03-03T08:06:48;14.75;;;7.40;;
7487;SDS011;3785;52.260;4.728;2023-03-03T08:14:09;15.63;;;7.78;;
7487;SDS011;3785;52.260;4.728;2023-03-03T08:17:35;13.82;;;7.55;;
7487;SDS011;3785;52.260;4.728;2023-03-03T08:20:59;18.58;;;8.18;;
7487;SDS011;3785;52.260;4.728;2023-03-03T08:24:36;17.75;;;7.95;;
7487;SDS011;3785;52.260;4.728;2023-03-03T08:27:57;14.20;;;7.40;;
7487;SDS011;3785;52.260;4.728;2023-03-03T08:31:18;17.27;;;7.93;;
7487;SDS011;3785;52.260;4.728;2023-03-03T08:34:38;14.65;;;7.75;;
7487;SDS011;3785;52.260;4.728;2023-03-03T08:37:59;14.63;;;7.22;;
7487;SDS011;3785;52.260;4.728;2023-03-03T08:41:20;13.88;;;7.45;;
7487;SDS011;3785;52.260;4.728;2023-03-03T08:44:40;12.43;;;6.68;;
7487;SDS011;3785;52.260;4.728;2023-03-03T08:48:01;16.63;;;7.72;;
7487;SDS011;3785;52.260;4.728;2023-03-03T08:51:22;12.60;;;6.43;;
7487;SDS011;3785;52.260;4.728;2023-03-03T08:54:43;11.30;;;6.57;;
7487;SDS011;3785;52.260;4.728;2023-03-03T08:58:04;10.32;;;6.45;;
7487;SDS011;3785;52.260;4.728;2023-03-03T09:01:25;11.90;;;5.78;;
7487;SDS011;3785;52.260;4.728;2023-03-03T09:04:46;11.52;;;6.10;;
7487;SDS011;3785;52.260;4.728;2023-03-03T09:08:07;12.82;;;5.60;;
7487;SDS011;3785;52.260;4.728;2023-03-03T09:11:27;11.48;;;6.35;;
7487;SDS011;3785;52.260;4.728;2023-03-03T09:14:49;9.55;;;3.47;;
7487;SDS011;3785;52.260;4.728;2023-03-03T09:18:15;7.00;;;4.05;;
7487;SDS011;3785;52.260;4.728;2023-03-03T09:21:35;5.95;;;3.70;;
7487;SDS011;3785;52.260;4.728;2023-03-03T09:24:56;4.20;;;2.50;;
7487;SDS011;3785;52.260;4.728;2023-03-03T09:31:42;4.68;;;2.85;;
7487;SDS011;3785;52.260;4.728;2023-03-03T09:38:59;5.63;;;2.50;;
7487;SDS011;3785;52.260;4.728;2023-03-03T09:56:33;6.80;;;3.92;;
7487;SDS011;3785;52.260;4.728;2023-03-03T10:00:08;8.38;;;4.40;;
7487;SDS011;3785;52.260;4.728;2023-03-03T10:10:52;7.63;;;3.88;;
7487;SDS011;3785;52.260;4.728;2023-03-03T10:29:34;2.75;;;0.82;;
7487;SDS011;3785;52.260;4.728;2023-03-03T10:40:07;1.33;;;0.80;;
7487;SDS011;3785;52.260;4.728;2023-03-03T10:44:00;0.95;;;0.63;;
7487;SDS011;3785;52.260;4.728;2023-03-03T10:47:43;1.33;;;0.60;;
7487;SDS011;3785;52.260;4.728;2023-03-03T11:08:43;2.25;;;1.00;;
7487;SDS011;3785;52.260;4.728;2023-03-03T11:12:15;1.10;;;0.80;;
7487;SDS011;3785;52.260;4.728;2023-03-03T11:41:40;0.98;;;0.60;;
7487;SDS011;3785;52.260;4.728;2023-03-03T11:45:18;1.52;;;0.65;;
7487;SDS011;3785;52.260;4.728;2023-03-03T11:48:45;0.68;;;0.50;;
7487;SDS011;3785;52.260;4.728;2023-03-03T11:55:48;2.05;;;0.60;;
7487;SDS011;3785;52.260;4.728;2023-03-03T12:06:07;0.60;;;0.45;;
7487;SDS011;3785;52.260;4.728;2023-03-03T12:27:28;1.77;;;0.70;;
7487;SDS011;3785;52.260;4.728;2023-03-03T12:34:40;0.80;;;0.57;;
7487;SDS011;3785;52.260;4.728;2023-03-03T12:45:35;0.90;;;0.60;;
7487;SDS011;3785;52.260;4.728;2023-03-03T12:49:03;1.85;;;0.57;;
7487;SDS011;3785;52.260;4.728;2023-03-03T12:56:12;2.92;;;0.70;;
7487;SDS011;3785;52.260;4.728;2023-03-03T13:11:15;2.28;;;0.80;;
7487;SDS011;3785;52.260;4.728;2023-03-03T13:18:18;1.10;;;0.40;;
7487;SDS011;3785;52.260;4.728;2023-03-03T13:22:04;0.63;;;0.50;;
7487;SDS011;3785;52.260;4.728;2023-03-03T13:25:34;1.70;;;0.55;;
7487;SDS011;3785;52.260;4.728;2023-03-03T13:29:14;0.90;;;0.60;;
7487;SDS011;3785;52.260;4.728;2023-03-03T13:33:00;2.67;;;0.70;;
7487;SDS011;3785;52.260;4.728;2023-03-03T13:36:39;1.73;;;0.60;;
7487;SDS011;3785;52.260;4.728;2023-03-03T13:58:18;1.58;;;0.63;;
7487;SDS011;3785;52.260;4.728;2023-03-03T14:05:56;0.80;;;0.50;;
7487;SDS011;3785;52.260;4.728;2023-03-03T14:09:28;1.95;;;0.70;;
7487;SDS011;3785;52.260;4.728;2023-03-03T14:13:08;3.05;;;0.80;;
7487;SDS011;3785;52.260;4.728;2023-03-03T14:20:23;1.98;;;0.50;;
7487;SDS011;3785;52.260;4.728;2023-03-03T14:24:00;1.40;;;0.90;;
7487;SDS011;3785;52.260;4.728;2023-03-03T14:27:24;1.15;;;0.70;;
7487;SDS011;3785;52.260;4.728;2023-03-03T14:30:46;2.50;;;0.77;;
7487;SDS011;3785;52.260;4.728;2023-03-03T14:37:44;0.80;;;0.60;;
7487;SDS011;3785;52.260;4.728;2023-03-03T14:41:12;2.33;;;0.63;;
7487;SDS011;3785;52.260;4.728;2023-03-03T14:44:35;1.10;;;0.70;;
7487;SDS011;3785;52.260;4.728;2023-03-03T14:48:10;1.73;;;0.63;;
7487;SDS011;3785;52.260;4.728;2023-03-03T14:51:40;2.45;;;0.70;;
7487;SDS011;3785;52.260;4.728;2023-03-03T14:55:27;1.45;;;0.70;;
7487;SDS011;3785;52.260;4.728;2023-03-03T14:58:54;2.25;;;0.70;;
7487;SDS011;3785;52.260;4.728;2023-03-03T15:02:43;2.58;;;0.60;;
7487;SDS011;3785;52.260;4.728;2023-03-03T15:06:10;2.50;;;0.70;;
7487;SDS011;3785;52.260;4.728;2023-03-03T15:09:39;3.22;;;0.90;;
7487;SDS011;3785;52.260;4.728;2023-03-03T15:13:23;0.98;;;0.50;;
7487;SDS011;3785;52.260;4.728;2023-03-03T15:16:48;2.38;;;0.60;;
7487;SDS011;3785;52.260;4.728;2023-03-03T15:24:06;2.45;;;0.60;;
7487;SDS011;3785;52.260;4.728;2023-03-03T15:27:36;3.22;;;0.60;;
7487;SDS011;3785;52.260;4.728;2023-03-03T15:35:27;1.85;;;0.50;;
7487;SDS011;3785;52.260;4.728;2023-03-03T15:39:30;1.75;;;0.60;;
7487;SDS011;3785;52.260;4.728;2023-03-03T15:42:48;3.25;;;0.50;;
7487;SDS011;3785;52.260;4.728;2023-03-03T15:46:19;2.42;;;0.90;;
7487;SDS011;3785;52.260;4.728;2023-03-03T15:50:10;1.73;;;0.50;;
7487;SDS011;3785;52.260;4.728;2023-03-03T15:53:44;3.35;;;0.70;;
7487;SDS011;3785;52.260;4.728;2023-03-03T16:00:56;3.38;;;0.50;;
7487;SDS011;3785;52.260;4.728;2023-03-03T16:04:21;1.98;;;1.25;;
7487;SDS011;3785;52.260;4.728;2023-03-03T16:07:59;2.08;;;0.68;;
7487;SDS011;3785;52.260;4.728;2023-03-03T16:11:31;1.55;;;0.50;;
7487;SDS011;3785;52.260;4.728;2023-03-03T16:15:14;3.60;;;1.00;;
7487;SDS011;3785;52.260;4.728;2023-03-03T16:30:09;2.25;;;0.98;;
7487;SDS011;3785;52.260;4.728;2023-03-03T16:44:18;5.60;;;1.00;;
7487;SDS011;3785;52.260;4.728;2023-03-03T16:55:02;6.05;;;1.20;;
7487;SDS011;3785;52.260;4.728;2023-03-03T17:02:11;4.35;;;0.90;;
7487;SDS011;3785;52.260;4.728;2023-03-03T17:05:54;5.63;;;1.27;;
7487;SDS011;3785;52.260;4.728;2023-03-03T17:28:04;4.40;;;0.98;;
7487;SDS011;3785;52.260;4.728;2023-03-03T17:31:36;2.22;;;0.80;;
7487;SDS011;3785;52.260;4.728;2023-03-03T17:35:23;4.75;;;0.90;;
7487;SDS011;3785;52.260;4.728;2023-03-03T17:43:22;8.32;;;1.13;;
7487;SDS011;3785;52.260;4.728;2023-03-03T17:46:41;1.70;;;0.77;;
7487;SDS011;3785;52.260;4.728;2023-03-03T17:50:11;3.92;;;0.90;;
7487;SDS011;3785;52.260;4.728;2023-03-03T18:01:04;6.72;;;1.58;;
7487;SDS011;3785;52.260;4.728;2023-03-03T18:12:09;5.53;;;1.20;;
7487;SDS011;3785;52.260;4.728;2023-03-03T18:22:55;3.15;;;1.05;;
7487;SDS011;3785;52.260;4.728;2023-03-03T18:33:56;6.38;;;1.08;;
7487;SDS011;3785;52.260;4.728;2023-03-03T18:37:38;7.25;;;1.02;;
7487;SDS011;3785;52.260;4.728;2023-03-03T18:41:00;4.40;;;0.88;;
7487;SDS011;3785;52.260;4.728;2023-03-03T18:44:29;4.53;;;0.95;;
7487;SDS011;3785;52.260;4.728;2023-03-03T18:47:58;2.35;;;1.20;;
7487;SDS011;3785;52.260;4.728;2023-03-03T19:05:33;3.17;;;1.13;;
7487;SDS011;3785;52.260;4.728;2023-03-03T19:08:56;4.93;;;1.42;;
7487;SDS011;3785;52.260;4.728;2023-03-03T19:12:17;5.68;;;1.27;;
7487;SDS011;3785;52.260;4.728;2023-03-03T19:15:42;9.48;;;1.38;;
7487;SDS011;3785;52.260;4.728;2023-03-03T19:22:32;3.65;;;1.08;;
7487;SDS011;3785;52.260;4.728;2023-03-03T19:40:14;6.78;;;1.33;;
7487;SDS011;3785;52.260;4.728;2023-03-03T19:51:04;6.50;;;1.08;;
7487;SDS011;3785;52.260;4.728;2023-03-03T19:54:52;9.00;;;1.48;;
7487;SDS011;3785;52.260;4.728;2023-03-03T19:58:48;7.53;;;1.42;;
7487;SDS011;3785;52.260;4.728;2023-03-03T20:03:22;4.03;;;1.35;;
7487;SDS011;3785;52.260;4.728;2023-03-03T20:13:54;3.85;;;1.45;;
7487;SDS011;3785;52.260;4.728;2023-03-03T20:24:35;9.95;;;1.70;;
7487;SDS011;3785;52.260;4.728;2023-03-03T20:31:50;4.20;;;1.38;;
7487;SDS011;3785;52.260;4.728;2023-03-03T20:53:22;3.70;;;1.15;;
7487;SDS011;3785;52.260;4.728;2023-03-03T21:03:46;3.35;;;1.08;;
7487;SDS011;3785;52.260;4.728;2023-03-03T21:07:06;2.92;;;0.93;;
7487;SDS011;3785;52.260;4.728;2023-03-03T21:10:28;5.50;;;1.05;;
7487;SDS011;3785;52.260;4.728;2023-03-03T21:13:54;4.88;;;0.90;;
7487;SDS011;3785;52.260;4.728;2023-03-03T21:17:25;5.50;;;1.42;;
7487;SDS011;3785;52.260;4.728;2023-03-03T21:20:47;5.60;;;1.38;;
7487;SDS011;3785;52.260;4.728;2023-03-03T21:24:09;5.40;;;1.45;;
7487;SDS011;3785;52.260;4.728;2023-03-03T21:27:38;5.72;;;1.38;;
7487;SDS011;3785;52.260;4.728;2023-03-03T21:31:15;2.35;;;0.90;;
7487;SDS011;3785;52.260;4.728;2023-03-03T21:34:37;8.45;;;1.70;;
7487;SDS011;3785;52.260;4.728;2023-03-03T21:37:58;6.22;;;1.27;;
7487;SDS011;3785;52.260;4.728;2023-03-03T21:41:19;5.95;;;1.23;;
7487;SDS011;3785;52.260;4.728;2023-03-03T21:44:41;4.75;;;1.52;;
7487;SDS011;3785;52.260;4.728;2023-03-03T21:48:05;4.93;;;1.33;;
7487;SDS011;3785;52.260;4.728;2023-03-03T21:51:26;4.90;;;1.02;;
7487;SDS011;3785;52.260;4.728;2023-03-03T21:54:48;3.95;;;1.17;;
7487;SDS011;3785;52.260;4.728;2023-03-03T21:58:10;3.90;;;1.10;;
7487;SDS011;3785;52.260;4.728;2023-03-03T22:01:30;4.20;;;1.00;;
7487;SDS011;3785;52.260;4.728;2023-03-03T22:04:51;6.68;;;1.25;;
7487;SDS011;3785;52.260;4.728;2023-03-03T22:08:11;4.72;;;1.10;;
7487;SDS011;3785;52.260;4.728;2023-03-03T22:11:32;4.90;;;0.90;;
7487;SDS011;3785;52.260;4.728;2023-03-03T22:14:52;4.93;;;0.82;;
7487;SDS011;3785;52.260;4.728;2023-03-03T22:18:14;4.80;;;1.38;;
7487;SDS011;3785;52.260;4.728;2023-03-03T22:21:37;7.07;;;1.33;;
7487;SDS011;3785;52.260;4.728;2023-03-03T22:24:58;5.55;;;1.27;;
7487;SDS011;3785;52.260;4.728;2023-03-03T22:28:18;6.35;;;1.25;;
7487;SDS011;3785;52.260;4.728;2023-03-03T22:31:39;6.13;;;1.25;;
7487;SDS011;3785;52.260;4.728;2023-03-03T22:35:00;3.83;;;1.10;;
7487;SDS011;3785;52.260;4.728;2023-03-03T22:38:20;5.32;;;1.35;;
7487;SDS011;3785;52.260;4.728;2023-03-03T22:41:43;5.32;;;1.45;;
7487;SDS011;3785;52.260;4.728;2023-03-03T22:45:04;3.35;;;0.73;;
7487;SDS011;3785;52.260;4.728;2023-03-03T22:48:25;4.57;;;0.80;;
7487;SDS011;3785;52.260;4.728;2023-03-03T22:51:47;5.97;;;1.13;;
7487;SDS011;3785;52.260;4.728;2023-03-03T22:55:07;2.85;;;0.82;;
7487;SDS011;3785;52.260;4.728;2023-03-03T22:58:28;6.35;;;1.10;;
7487;SDS011;3785;52.260;4.728;2023-03-03T23:01:49;5.20;;;1.17;;
7487;SDS011;3785;52.260;4.728;2023-03-03T23:05:10;3.88;;;1.20;;
7487;SDS011;3785;52.260;4.728;2023-03-03T23:08:30;5.03;;;0.98;;
7487;SDS011;3785;52.260;4.728;2023-03-03T23:11:51;2.53;;;0.80;;
7487;SDS011;3785;52.260;4.728;2023-03-03T23:15:12;4.88;;;0.70;;
7487;SDS011;3785;52.260;4.728;2023-03-03T23:18:32;5.63;;;1.35;;
7487;SDS011;3785;52.260;4.728;2023-03-03T23:21:53;5.63;;;1.02;;
7487;SDS011;3785;52.260;4.728;2023-03-03T23:25:13;3.20;;;0.93;;
7487;SDS011;3785;52.260;4.728;2023-03-03T23:28:34;2.83;;;0.82;;
7487;SDS011;3785;52.260;4.728;2023-03-03T23:31:55;8.10;;;1.35;;
7487;SDS011;3785;52.260;4.728;2023-03-03T23:35:16;3.53;;;0.95;;
7487;SDS011;3785;52.260;4.728;2023-03-03T23:38:36;7.53;;;1.20;;
7487;SDS011;3785;52.260;4.728;2023-03-03T23:41:57;5.10;;;1.35;;
7487;SDS011;3785;52.260;4.728;2023-03-03T23:45:17;4.38;;;1.17;;
7487;SDS011;3785;52.260;4.728;2023-03-03T23:48:38;4.70;;;0.88;;
7487;SDS011;3785;52.260;4.728;2023-03-03T23:51:59;2.80;;;0.80;;
7487;SDS011;3785;52.260;4.728;2023-03-03T23:55:19;7.47;;;1.20;;
7487;SDS011;3785;52.260;4.728;2023-03-03T23:58:40;4.30;;;1.08;;
